Pos First Name Last Name YOB Country Start
Num
Time Run T1 Bike T2 Run
1 Andreas Schilling 1991 DEN 23 01:35:56 00:27:53 00:00:44 00:53:18 00:00:42 00:13:19
2 Yohan Le Berre 1987 FRA 6 01:35:57 00:27:54 00:00:40 00:53:20 00:00:42 00:13:21
3 Mark Buckingham 1985 GBR 5 01:36:47 00:27:53 00:00:43 00:53:22 00:00:45 00:14:04
4 László Tarnai 1993 HUN 28 01:37:48 00:27:54 00:00:43 00:54:23 00:00:41 00:14:07
5 Dely Arnaud 1997 BEL 50 01:37:59 00:27:54 00:00:41 00:54:28 00:00:44 00:14:12
6 Benjamin Choquert 1986 FRA 4 01:39:50 00:27:52 00:00:43 00:57:10 00:00:41 00:13:24
7 Vincent Bierinckx 1990 BEL 16 01:39:56 00:28:15 00:00:44 00:56:43 00:00:42 00:13:32
8 Philip Wylie 1978 GBR 7 01:40:06 00:28:14 00:00:44 00:56:52 00:00:46 00:13:30
9 Nicklas Røssner 1991 DEN 27 01:40:10 00:28:39 00:00:46 00:56:16 00:01:00 00:13:29
10 Thomas Springer 1984 AUT 14 01:40:20 00:28:49 00:00:48 00:56:11 00:00:48 00:13:44
11 Benoit Nicolas 1977 FRA 3 01:40:24 00:28:16 00:00:46 00:56:44 00:00:45 00:13:53
12 Emmanuel Lejeune 1992 BEL 10 01:40:25 00:28:14 00:00:46 00:56:50 00:00:47 00:13:48
13 Cristobal Garcia Guillen 1986 ESP 19 01:40:27 00:28:48 00:00:46 00:56:13 00:00:45 00:13:55
14 Emilio Martin 1982 ESP 2 01:40:33 00:28:16 00:00:49 00:56:40 00:00:48 00:14:00
15 Krzysztof Hadas 1996 POL 44 01:40:35 00:28:47 00:00:48 00:56:14 00:00:48 00:13:58
16 Simon Jørn Hansen 1991 DEN 8 01:40:40 00:29:10 00:00:44 00:55:49 00:00:48 00:14:09
17 Ondrej Kubo 1993 SVK 18 01:40:52 00:29:38 00:00:42 00:55:28 00:00:47 00:14:17
18 Max Schröter 1993 GER 20 01:40:59 00:28:47 00:00:48 00:56:10 00:00:47 00:14:27
19 Fumiya Tanaka 1991 JPN 11 01:41:00 00:28:49 00:00:45 00:56:15 00:00:49 00:14:21
20 Jan Petralia 1992 BEL 9 01:41:03 00:29:17 00:00:48 00:55:25 00:00:47 00:14:46
21 Valentin Fridelance 1991 SUI 21 01:41:11 00:29:18 00:00:45 00:55:44 00:00:49 00:14:35
22 Wesley Mols 1996 NED 51 01:41:14 00:28:44 00:00:48 00:56:18 00:00:49 00:14:35
23 Thomas Cremers 1998 NED 56 01:41:30 00:29:17 00:00:52 00:55:37 00:00:49 00:14:55
24 Nicolas Tilman 1995 BEL 52 01:41:43 00:29:22 00:00:44 00:55:40 00:00:47 00:15:10
25 Aoba Yasumatsu 1997 JPN 42 01:41:47 00:28:49 00:00:46 00:56:14 00:00:48 00:15:10
26 Søren Bystrup 1984 DEN 1 01:41:59 00:30:44 00:00:51 00:54:48 00:00:50 00:14:46
27 Stijn Jansen 1997 NED 59 01:42:06 00:30:37 00:00:49 00:54:54 00:00:48 00:14:58
28 Kristian Munk 1994 DEN 12 01:42:23 00:29:43 00:00:47 00:56:22 00:00:53 00:14:38
29 Matt Smith 1996 AUS 41 01:42:40 00:29:18 00:00:52 00:56:45 00:00:59 00:14:46
30 Thijs Wiggers 1995 NED 45 01:42:48 00:30:43 00:00:46 00:54:53 00:00:46 00:15:40
31 Niels Te Pas 1996 NED 54 01:43:21 00:29:56 00:00:46 00:56:14 00:00:51 00:15:34
32 Tsukasa Kuyama 1996 JPN 53 01:44:25 00:29:52 00:00:51 00:56:15 00:01:14 00:16:13
33 Shunsuke Nishimura 1998 JPN 58 01:44:43 00:29:18 00:00:51 00:56:48 00:01:07 00:16:39
34 Shohei Hara 1996 JPN 47 01:45:42 00:29:17 00:00:50 00:59:42 00:00:54 00:14:59
35 Oivind Bjerkseth 1988 NOR 25 01:46:23 00:29:58 00:00:52 00:56:04 00:01:07 00:18:22
36 Maciej Kubiak 1988 POL 26 01:46:24 00:29:54 00:00:46 00:59:11 00:00:51 00:15:42
37 Hotaka Yamagishi 1997 JPN 60 01:47:11 00:29:11 00:00:57 00:58:10 00:01:12 00:17:41
38 Niall Cornyn 1996 IRL 55 01:47:20 00:30:01 00:00:46 01:00:13 00:00:47 00:15:33
39 Jesse Bauer 1989 CAN 15 01:47:31 00:30:25 00:00:47 00:59:49 00:00:49 00:15:41
40 Ciprian Balanescu 1981 ROU 17 01:47:35 00:30:43 00:00:44 00:59:33 00:00:51 00:15:44
41 Christian Stounberg 1995 DEN 48 01:47:40 00:30:13 00:00:50 00:59:56 00:00:50 00:15:51
42 Stefan Daniel 1997 CAN 43 01:55:38 00:29:15 00:00:49 01:00:10 00:00:59 00:24:25
LAP Freddie Shashaty 1997 USA 46 LAP 00:31:22 00:00:56 00:00:00 00:00:00 00:00:00
LAP Kennedy Onyango 1996 KEN 49 LAP 00:29:35 00:01:01 00:00:00 00:00:00 00:00:00
LAP Matheus Schneider Veiga 1995 BRA 57 LAP 00:31:23 00:00:54 00:00:00 00:00:00 00:00:00
DSQ Adam Bowden 1982 GBR 24 DSQ 00:27:54 00:00:45 00:54:22 00:00:48 00:00:00
DSQ Morgan Davies 1994 GBR 31 DSQ 00:27:55 00:00:43 00:54:22 00:00:41 00:00:00
DNF Yazeed Khorma 1993 JOR 29 DNF 00:30:21 00:00:47 00:00:00 00:00:00 00:00:00
DNF Vincent Onyango 1985 KEN 30 DNF 00:30:03 00:00:54 00:00:00 00:00:00 00:00:00
Program notes:

Technical Delegate: Duncan Hough/GBR. Head Referee: Juliet Fahey/NZL - Competition Jury: Duncan Hough/GBR, Barry Siff/USA, Morten Fenger/DEN.
Distances: Run 9.5km (5 laps), Bike 37.8km (6 laps), Run 4.5km (2 laps).
Air temperature: 25.7C; Humidity : 27.5%.
Athletes #28 Tarnai/HUN, #17 Balanescu/ROU, #26 Kubiak/POL, #43 Daniel/CAN and #60 Yamagishi/JPN served a 15 seconds penalty during the 2nd run segment.
Athletes #24 Bowden/GBR and #31 Davies/GBR were disqualified because they didn’t stop at the penalty box.